Time;durP1;ratioP1;P1;durP2;ratioP2;P2;SDS_P1;SDS_P2;PMS_P1;PMS_P2;Temp;Humidity;BMP_temperature;BMP_pressure;BME280_temperature;BME280_humidity;BME280_pressure;Samples;Min_cycle;Max_cycle;Signal;HPM_P1;HPM_P2
2021/01/20 00:01:32;;;;;;;111.37;62.98;;;;;;;-0.80;88.35;99693.75;1658865;84;25909;-84
2021/01/20 00:03:58;;;;;;;106.75;61.10;;;;;;;-0.76;88.36;99689.23;1676580;83;25857;-84
2021/01/20 00:06:25;;;;;;;108.17;61.85;;;;;;;-0.75;88.36;99682.70;1676129;83;26447;-84
2021/01/20 00:08:51;;;;;;;113.92;62.62;;;;;;;-0.72;88.37;99686.32;1676674;83;25796;-84
2021/01/20 00:11:18;;;;;;;104.05;59.10;;;;;;;-0.70;88.39;99685.75;1675762;83;25849;-85
2021/01/20 00:13:45;;;;;;;104.85;58.35;;;;;;;-0.69;88.41;99688.66;1675276;83;25926;-84
2021/01/20 00:16:11;;;;;;;102.80;59.23;;;;;;;-0.65;88.52;99700.83;1677330;83;25902;-85
2021/01/20 00:18:38;;;;;;;113.15;59.93;;;;;;;-0.64;88.40;99696.52;1677192;83;25864;-84
2021/01/20 00:21:05;;;;;;;100.00;60.08;;;;;;;-0.63;88.44;99696.39;1677059;83;25861;-84
2021/01/20 00:23:31;;;;;;;101.27;58.45;;;;;;;-0.60;88.45;99694.91;1676880;83;25910;-84
2021/01/20 00:25:57;;;;;;;113.90;60.05;;;;;;;-0.58;88.46;99692.22;1678019;83;25435;-84
2021/01/20 00:28:24;;;;;;;100.53;58.40;;;;;;;-0.55;88.49;99696.66;1678627;83;25822;-84
2021/01/20 00:30:50;;;;;;;101.55;57.40;;;;;;;-0.51;88.45;99690.39;1678212;83;25766;-84
2021/01/20 00:33:17;;;;;;;96.90;57.90;;;;;;;-0.49;88.42;99685.97;1677663;83;25991;-85
2021/01/20 00:35:43;;;;;;;92.85;52.83;;;;;;;-0.49;88.38;99689.82;1675103;83;25775;-84
2021/01/20 00:38:10;;;;;;;103.65;58.55;;;;;;;-0.50;88.43;99677.89;1677458;83;26109;-84
2021/01/20 00:40:36;;;;;;;100.62;58.28;;;;;;;-0.48;88.43;99680.36;1676898;83;26647;-84
2021/01/20 00:43:03;;;;;;;97.40;56.00;;;;;;;-0.48;88.44;99682.46;1676930;83;25803;-83
2021/01/20 00:45:31;;;;;;;99.05;55.67;;;;;;;-0.45;88.45;99681.42;1677022;83;26416;-84
2021/01/20 00:47:57;;;;;;;90.25;53.70;;;;;;;-0.43;88.44;99680.85;1676232;83;26447;-84
2021/01/20 00:50:24;;;;;;;95.45;54.85;;;;;;;-0.43;88.42;99682.14;1674615;83;25965;-84
2021/01/20 00:52:50;;;;;;;97.00;53.23;;;;;;;-0.43;88.40;99682.61;1678169;83;25751;-85
2021/01/20 00:55:17;;;;;;;97.27;57.60;;;;;;;-0.45;88.40;99675.81;1674077;83;25783;-85
2021/01/20 00:57:45;;;;;;;95.90;51.20;;;;;;;-0.44;88.43;99676.62;1676433;83;26938;-84
2021/01/20 01:00:12;;;;;;;87.27;51.25;;;;;;;-0.41;88.48;99675.59;1676123;83;26290;-84
2021/01/20 01:02:41;;;;;;;87.15;51.18;;;;;;;-0.45;88.38;99668.12;1676554;83;25781;-85
2021/01/20 01:05:09;;;;;;;90.25;50.58;;;;;;;-0.42;88.46;99666.27;1677018;83;25364;-84
2021/01/20 01:07:35;;;;;;;83.55;49.33;;;;;;;-0.41;88.47;99666.16;1674849;83;25937;-84
2021/01/20 01:10:03;;;;;;;79.72;47.03;;;;;;;-0.37;88.47;99664.19;1676137;83;26717;-85
2021/01/20 01:12:40;;;;;;;84.30;48.87;;;;;;;-0.40;88.44;99662.66;1640998;83;27311;-84
2021/01/20 01:15:09;;;;;;;88.67;51.20;;;;;;;-0.37;88.52;99660.33;1677393;83;25743;-85
2021/01/20 01:17:36;;;;;;;88.12;51.25;;;;;;;-0.37;88.50;99658.58;1643992;84;25811;-84
2021/01/20 01:20:04;;;;;;;83.62;46.75;;;;;;;-0.34;88.57;99663.95;1673862;83;25898;-84
2021/01/20 01:22:30;;;;;;;77.87;45.90;;;;;;;-0.33;88.54;99665.58;1675943;83;25738;-84
2021/01/20 01:24:57;;;;;;;78.37;44.15;;;;;;;-0.32;88.54;99661.62;1677075;83;25575;-84
2021/01/20 01:27:23;;;;;;;76.47;44.75;;;;;;;-0.32;88.53;99668.52;1677354;83;25829;-85
2021/01/20 01:29:50;;;;;;;75.90;44.08;;;;;;;-0.32;88.52;99662.10;1651421;83;25894;-84
2021/01/20 01:32:18;;;;;;;69.58;42.58;;;;;;;-0.31;88.57;99663.73;1677200;83;25731;-85
2021/01/20 01:34:45;;;;;;;75.32;43.80;;;;;;;-0.34;88.51;99654.50;1658334;83;26571;-84
2021/01/20 01:37:12;;;;;;;75.45;42.85;;;;;;;-0.34;88.49;99653.21;1675562;83;26661;-83
2021/01/20 01:39:57;;;;;;;76.62;46.48;;;;;;;-0.32;88.57;99641.09;1672759;83;26860;-83
2021/01/20 01:42:28;;;;;;;76.60;43.30;;;;;;;-0.29;88.58;99638.77;1673440;83;26426;-85
2021/01/20 01:44:56;;;;;;;72.55;43.35;;;;;;;-0.28;88.54;99641.20;1674439;83;25948;-84
2021/01/20 01:47:24;;;;;;;72.55;42.25;;;;;;;-0.30;88.49;99643.53;1675608;83;25605;-85
2021/01/20 01:49:56;;;;;;;69.70;39.88;;;;;;;-0.32;88.54;99637.71;1672129;83;25942;-85
2021/01/20 01:52:21;;;;;;;69.97;41.68;;;;;;;-0.34;88.66;99642.95;1671912;83;25961;-85
2021/01/20 01:55:08;;;;;;;66.30;37.93;;;;;;;-0.36;88.52;99639.66;1674673;83;25688;-85
2021/01/20 01:57:42;;;;;;;64.27;39.42;;;;;;;-0.35;88.53;99643.08;1659205;83;26578;-84
2021/01/20 02:00:11;;;;;;;67.62;39.25;;;;;;;-0.39;88.53;99641.65;1673282;83;25854;-84
2021/01/20 02:02:40;;;;;;;66.60;41.05;;;;;;;-0.31;88.59;99636.77;1675788;83;25769;-85
2021/01/20 02:05:08;;;;;;;61.45;37.70;;;;;;;-0.31;88.49;99641.44;1673438;83;25797;-85
2021/01/20 02:07:36;;;;;;;65.40;39.65;;;;;;;-0.28;88.48;99645.05;1675830;83;25860;-85
2021/01/20 02:10:06;;;;;;;69.00;39.90;;;;;;;-0.30;88.39;99648.22;1671699;83;26025;-85
2021/01/20 02:13:14;;;;;;;65.67;37.10;;;;;;;-0.29;88.44;99642.61;1673874;83;25833;-84
2021/01/20 02:16:17;;;;;;;66.90;38.55;;;;;;;-0.30;88.41;99644.81;1671427;83;26834;-84
2021/01/20 02:18:48;;;;;;;59.95;35.83;;;;;;;-0.31;88.42;99641.44;1655017;83;25713;-84
2021/01/20 02:21:38;;;;;;;62.80;37.40;;;;;;;-0.29;88.43;99653.70;1673599;83;25751;-84
2021/01/20 02:24:11;;;;;;;62.17;36.60;;;;;;;-0.30;88.31;99653.80;1632997;83;26614;-84
2021/01/20 02:27:02;;;;;;;61.55;38.70;;;;;;;-0.35;88.26;99654.16;1674874;83;26528;-84
2021/01/20 02:29:50;;;;;;;;;;;;;;;-0.34;88.38;99653.21;1675143;83;26520;-84
2021/01/20 02:36:30;;;;;;;60.85;34.88;;;;;;;-0.36;88.28;99643.98;1676108;83;25735;-84
2021/01/20 02:42:56;;;;;;;60.75;34.63;;;;;;;-0.42;88.31;99645.73;1645413;84;25822;-84
2021/01/20 02:45:24;;;;;;;58.68;36.08;;;;;;;-0.44;88.31;99641.98;1646465;85;26143;-84
2021/01/20 02:47:53;;;;;;;60.78;35.30;;;;;;;-0.44;88.30;99641.98;1648791;85;26500;-84
2021/01/20 02:50:23;;;;;;;58.98;34.98;;;;;;;-0.46;88.27;99647.24;1644817;85;25988;-84
2021/01/20 02:53:15;;;;;;;65.45;36.77;;;;;;;-0.45;88.28;99647.58;1648852;86;25961;-84
2021/01/20 02:56:03;;;;;;;59.67;34.35;;;;;;;-0.45;88.28;99648.87;1625542;86;25777;-84
2021/01/20 02:58:47;;;;;;;58.25;33.85;;;;;;;-0.49;88.23;99646.19;1647740;85;27595;-84
2021/01/20 03:02:35;;;;;;;54.45;33.50;;;;;;;-0.49;88.32;99649.22;1648044;85;26574;-84
2021/01/20 03:05:03;;;;;;;61.05;35.43;;;;;;;-0.51;88.28;99644.19;1646972;84;26595;-83
2021/01/20 03:07:33;;;;;;;58.60;33.78;;;;;;;-0.52;88.31;99646.41;1649735;85;25962;-83
2021/01/20 03:10:00;;;;;;;62.53;35.28;;;;;;;-0.50;88.39;99639.87;1647826;85;26066;-84
2021/01/20 03:12:31;;;;;;;58.42;34.40;;;;;;;-0.50;88.32;99635.55;1652412;85;25679;-83
2021/01/20 03:15:00;;;;;;;58.92;34.92;;;;;;;-0.49;88.32;99637.67;1649891;85;25826;-83
2021/01/20 03:17:31;;;;;;;60.15;36.83;;;;;;;-0.47;88.26;99640.45;1674496;83;26808;-83
2021/01/20 03:19:57;;;;;;;;;;;;;;;-0.48;88.23;99640.11;1677077;83;25812;-83
2021/01/20 03:22:27;;;;;;;60.03;33.18;;;;;;;-0.48;88.17;99643.14;1676996;83;26451;-83
2021/01/20 03:24:53;;;;;;;59.25;35.33;;;;;;;-0.51;88.22;99640.34;1675482;83;26383;-84
2021/01/20 03:27:20;;;;;;;58.70;34.85;;;;;;;-0.51;88.25;99643.37;1676998;83;25885;-83
2021/01/20 03:29:50;;;;;;;62.70;36.40;;;;;;;-0.53;88.19;99650.36;1676125;83;26084;-82
2021/01/20 03:32:14;;;;;;;56.63;34.03;;;;;;;-0.51;88.27;99644.19;1674749;83;25853;-81
2021/01/20 03:34:40;;;;;;;59.08;33.75;;;;;;;-0.52;88.16;99640.00;1678250;83;25726;-82
2021/01/20 03:37:06;;;;;;;55.10;31.52;;;;;;;-0.51;88.22;99645.47;1677150;83;25692;-82
2021/01/20 03:39:33;;;;;;;56.00;33.58;;;;;;;-0.48;88.28;99643.14;1675206;83;25801;-82
2021/01/20 03:41:59;;;;;;;59.13;32.95;;;;;;;-0.49;88.24;99644.09;1677161;83;26523;-83
2021/01/20 03:44:25;;;;;;;58.02;33.85;;;;;;;-0.52;88.17;99645.57;1674502;83;26519;-82
2021/01/20 03:46:51;;;;;;;58.48;33.55;;;;;;;-0.51;88.28;99640.34;1654840;83;25541;-83
2021/01/20 03:49:17;;;;;;;52.78;32.40;;;;;;;-0.52;88.31;99634.86;1640357;85;26421;-83
2021/01/20 03:51:45;;;;;;;55.30;32.33;;;;;;;-0.49;88.36;99640.23;1641551;85;25746;-83
2021/01/20 03:54:15;;;;;;;55.92;33.40;;;;;;;-0.48;88.35;99632.41;1640923;85;25720;-83
2021/01/20 03:56:41;;;;;;;53.78;32.98;;;;;;;-0.47;88.22;99640.92;1641166;85;35336;-83
2021/01/20 04:00:04;;;;;;;57.13;33.08;;;;;;;-0.50;88.17;99639.39;1639431;85;25919;-82
2021/01/20 04:02:31;;;;;;;55.15;31.93;;;;;;;-0.50;88.24;99638.58;1643667;85;25682;-82
2021/01/20 04:04:59;;;;;;;52.38;31.40;;;;;;;-0.50;88.28;99639.87;1642721;85;25502;-82
2021/01/20 04:07:26;;;;;;;54.45;34.30;;;;;;;-0.47;88.39;99644.30;1642537;85;25596;-82
2021/01/20 04:09:52;;;;;;;55.92;32.83;;;;;;;-0.46;88.31;99644.67;1643156;85;26533;-82
2021/01/20 04:12:18;;;;;;;53.78;30.55;;;;;;;-0.43;88.34;99642.34;1642227;85;25926;-82
2021/01/20 04:14:45;;;;;;;53.95;31.62;;;;;;;-0.43;88.30;99634.65;1639785;85;25888;-82
2021/01/20 04:17:11;;;;;;;54.60;34.50;;;;;;;-0.39;88.41;99623.21;1644298;85;25860;-83
2021/01/20 04:19:38;;;;;;;55.05;33.67;;;;;;;-0.39;88.37;99611.66;1642467;85;26021;-83
2021/01/20 04:22:04;;;;;;;51.33;31.42;;;;;;;-0.40;88.29;99614.36;1640600;85;26472;-83
2021/01/20 04:24:31;;;;;;;51.10;29.87;;;;;;;-0.38;88.37;99616.32;1642244;85;26666;-83
2021/01/20 04:26:57;;;;;;;52.53;32.20;;;;;;;-0.39;88.35;99625.77;1641888;85;25894;-82
2021/01/20 04:29:23;;;;;;;57.27;31.27;;;;;;;-0.40;88.29;99627.19;1643092;85;26125;-83
2021/01/20 04:31:50;;;;;;;55.60;32.88;;;;;;;-0.37;88.34;99633.38;1640310;85;25842;-82
2021/01/20 04:34:17;;;;;;;54.45;33.33;;;;;;;-0.34;88.40;99625.45;1645371;85;26777;-82
2021/01/20 04:36:43;;;;;;;56.10;30.82;;;;;;;-0.31;88.42;99617.52;1641341;85;25880;-82
2021/01/20 04:39:10;;;;;;;55.43;30.77;;;;;;;-0.29;88.37;99611.33;1639673;85;26015;-82
2021/01/20 04:41:36;;;;;;;54.00;33.10;;;;;;;-0.30;88.26;99619.98;1644045;85;26469;-82
2021/01/20 04:44:04;;;;;;;59.75;33.23;;;;;;;-0.28;88.22;99621.95;1640835;85;25857;-82
2021/01/20 04:46:31;;;;;;;56.58;32.15;;;;;;;-0.29;88.11;99622.08;1647958;83;25326;-79
2021/01/20 04:49:00;;;;;;;54.15;32.85;;;;;;;-0.30;88.14;99617.41;1670395;83;25762;-82
2021/01/20 04:51:28;;;;;;;55.58;30.82;;;;;;;-0.32;88.21;99611.56;1670008;83;26669;-82
2021/01/20 04:53:55;;;;;;;53.30;32.25;;;;;;;-0.30;88.23;99620.42;1668682;83;26471;-82
2021/01/20 04:56:23;;;;;;;49.42;30.32;;;;;;;-0.29;88.23;99616.94;1668977;83;26654;-82
2021/01/20 04:58:55;;;;;;;51.40;31.27;;;;;;;-0.33;88.11;99614.23;1669839;83;25801;-83
2021/01/20 05:01:22;;;;;;;49.77;30.05;;;;;;;-0.36;88.14;99610.14;1669845;83;25211;-83
2021/01/20 05:03:49;;;;;;;48.25;30.75;;;;;;;-0.35;88.17;99615.65;1670200;83;26654;-83
2021/01/20 05:06:16;;;;;;;52.50;32.45;;;;;;;-0.36;88.22;99611.90;1669506;83;26474;-83
2021/01/20 05:08:42;;;;;;;52.23;30.17;;;;;;;-0.36;88.21;99622.16;1668888;83;25888;-83
2021/01/20 05:11:08;;;;;;;51.08;32.05;;;;;;;-0.35;88.37;99612.27;1670246;83;25768;-83
2021/01/20 05:13:35;;;;;;;50.25;30.97;;;;;;;-0.36;88.25;99620.41;1668004;84;25755;-82
2021/01/20 05:16:02;;;;;;;54.50;31.25;;;;;;;-0.36;88.33;99619.59;1667429;84;25750;-82
2021/01/20 05:18:28;;;;;;;53.75;32.20;;;;;;;-0.37;88.29;99615.41;1668930;84;26467;-82
2021/01/20 05:20:54;;;;;;;48.10;29.02;;;;;;;-0.37;88.25;99617.97;1666020;83;25828;-82
2021/01/20 05:23:26;;;;;;;52.85;30.75;;;;;;;-0.36;88.34;99617.03;1666498;83;25943;-82
2021/01/20 05:25:53;;;;;;;51.55;30.27;;;;;;;-0.37;88.24;99617.97;1669973;83;25700;-82
2021/01/20 05:28:28;;;;;;;49.70;31.15;;;;;;;-0.40;88.26;99612.59;1667103;83;26397;-82
2021/01/20 05:30:58;;;;;;;53.45;30.82;;;;;;;-0.36;88.45;99620.41;1670869;83;25866;-82
2021/01/20 05:33:29;;;;;;;56.75;30.92;;;;;;;-0.33;88.40;99626.63;1668752;83;25440;-82
2021/01/20 05:36:12;;;;;;;50.30;31.30;;;;;;;-0.32;88.33;99624.88;1669171;83;25956;-83
2021/01/20 05:38:45;;;;;;;53.52;31.25;;;;;;;-0.34;88.35;99624.98;1667638;83;25827;-83
2021/01/20 05:41:29;;;;;;;54.90;33.33;;;;;;;-0.37;88.23;99626.95;1670002;84;25895;-82
2021/01/20 05:44:12;;;;;;;47.90;29.75;;;;;;;-0.39;88.29;99627.06;1671821;83;25829;-82
2021/01/20 05:46:42;;;;;;;50.60;29.12;;;;;;;-0.37;88.38;99622.64;1671601;83;25523;-83
2021/01/20 05:49:31;;;;;;;49.27;28.77;;;;;;;-0.35;88.31;99631.52;1673233;83;25737;-83
2021/01/20 05:51:57;;;;;;;51.85;31.77;;;;;;;-0.35;88.35;99626.39;1672031;83;26463;-83
2021/01/20 05:54:37;;;;;;;50.65;31.52;;;;;;;-0.34;88.42;99632.67;1675103;83;25807;-82
2021/01/20 05:57:19;;;;;;;51.18;30.50;;;;;;;-0.32;88.46;99636.42;1671576;83;25763;-82
2021/01/20 05:59:50;;;;;;;47.10;29.75;;;;;;;-0.31;88.53;99633.73;1673287;83;26334;-83
2021/01/20 06:02:20;;;;;;;55.10;31.12;;;;;;;-0.30;88.53;99635.39;1675198;83;25830;-83
2021/01/20 06:04:48;;;;;;;52.53;30.12;;;;;;;-0.28;88.51;99632.69;1674112;83;25517;-84
2021/01/20 06:07:16;;;;;;;53.55;31.35;;;;;;;-0.29;88.40;99625.92;1673101;83;25799;-82
2021/01/20 06:09:45;;;;;;;46.35;27.52;;;;;;;-0.29;88.46;99626.73;1672588;83;25778;-83
2021/01/20 06:12:14;;;;;;;50.30;32.07;;;;;;;-0.25;88.48;99632.45;1674012;83;25981;-83
2021/01/20 06:14:42;;;;;;;51.95;30.77;;;;;;;-0.25;88.47;99632.45;1674016;83;25752;-82
2021/01/20 06:17:22;;;;;;;53.45;31.05;;;;;;;-0.24;88.57;99632.35;1672820;83;25859;-83
2021/01/20 06:19:50;;;;;;;51.10;30.12;;;;;;;-0.25;88.53;99631.17;1673541;83;25908;-83
2021/01/20 06:22:19;;;;;;;50.70;31.00;;;;;;;-0.24;88.61;99634.92;1675357;83;25820;-82
2021/01/20 06:24:49;;;;;;;52.27;31.37;;;;;;;-0.23;88.60;99635.27;1673977;83;25844;-82
2021/01/20 06:27:45;;;;;;;53.15;31.30;;;;;;;-0.19;88.68;99637.59;1676300;83;25804;-82
2021/01/20 06:30:26;;;;;;;43.20;26.68;;;;;;;-0.13;88.76;99632.03;1672484;83;26619;-82
2021/01/20 06:32:54;;;;;;;52.27;31.02;;;;;;;-0.13;88.59;99639.27;1638621;85;25828;-83
2021/01/20 06:35:20;;;;;;;50.80;29.48;;;;;;;-0.11;88.67;99635.28;1609704;86;25886;-83
2021/01/20 06:37:48;;;;;;;47.50;30.17;;;;;;;-0.07;88.75;99640.08;1612700;86;25825;-83
2021/01/20 06:40:23;;;;;;;52.27;30.90;;;;;;;-0.06;88.74;99642.98;1615314;86;25588;-83
2021/01/20 06:42:51;;;;;;;51.60;30.68;;;;;;;-0.05;88.72;99637.41;1610833;86;25905;-83
2021/01/20 06:45:25;;;;;;;52.23;30.02;;;;;;;-0.07;88.65;99642.65;1615039;86;26897;-83
2021/01/20 06:48:06;;;;;;;51.95;29.00;;;;;;;-0.04;88.70;99640.32;1612828;86;25655;-83
2021/01/20 06:50:43;;;;;;;48.65;29.77;;;;;;;0.01;88.83;99642.08;1668737;83;25954;-83
2021/01/20 06:53:09;;;;;;;47.62;28.00;;;;;;;0.02;88.69;99646.27;1663455;83;25855;-83
2021/01/20 06:55:39;;;;;;;50.90;31.10;;;;;;;0.05;88.82;99642.19;1668812;83;26498;-83
2021/01/20 06:58:24;;;;;;;53.00;30.65;;;;;;;0.07;88.84;99635.66;1668580;83;25743;-83
2021/01/20 07:01:04;;;;;;;50.15;31.10;;;;;;;0.09;88.87;99642.32;1670472;83;25994;-83
2021/01/20 07:03:54;;;;;;;;;;;;;;;0.10;88.85;99646.52;1671624;83;25662;-83
2021/01/20 07:06:43;;;;;;;52.30;29.32;;;;;;;0.06;88.79;99642.55;1668760;83;25705;-83
2021/01/20 07:09:11;;;;;;;48.78;30.70;;;;;;;0.06;88.98;99641.74;1671409;83;25598;-83
2021/01/20 07:12:01;;;;;;;44.30;28.65;;;;;;;0.09;89.01;99637.19;1670430;83;25780;-82
2021/01/20 07:14:31;;;;;;;47.67;27.80;;;;;;;0.11;89.07;99643.03;1668662;83;34142;-82
2021/01/20 07:16:59;;;;;;;48.40;29.52;;;;;;;0.14;89.13;99640.23;1669801;83;32661;-82
2021/01/20 07:19:28;;;;;;;48.25;28.65;;;;;;;0.19;89.24;99632.98;1669258;83;25790;-83
2021/01/20 07:21:55;;;;;;;48.10;28.62;;;;;;;0.28;89.37;99644.78;1669008;84;33631;-83
2021/01/20 07:24:21;;;;;;;55.65;34.38;;;;;;;0.26;89.17;99637.66;1665827;85;26522;-84
2021/01/20 07:26:49;;;;;;;88.05;52.53;;;;;;;0.30;89.21;99642.89;1668528;83;25350;-83
2021/01/20 07:29:21;;;;;;;54.77;37.17;;;;;;;0.32;89.28;99641.84;1672387;83;25790;-83
2021/01/20 07:31:50;;;;;;;49.15;33.73;;;;;;;0.34;89.25;99635.31;1669699;83;26635;-83
2021/01/20 07:34:17;;;;;;;54.60;38.63;;;;;;;0.33;89.17;99642.69;1668645;83;26642;-83
2021/01/20 07:36:46;;;;;;;51.80;33.85;;;;;;;0.36;89.35;99637.31;1667439;83;25703;-82
2021/01/20 07:39:26;;;;;;;52.45;31.45;;;;;;;0.36;89.44;99639.41;1671432;83;25847;-82
2021/01/20 07:41:57;;;;;;;49.77;30.32;;;;;;;0.37;89.40;99642.31;1668065;83;26359;-83
2021/01/20 07:44:24;;;;;;;46.80;30.35;;;;;;;0.39;89.49;99637.07;1668937;83;25988;-83
2021/01/20 07:47:07;;;;;;;52.50;32.00;;;;;;;0.41;89.50;99630.88;1669496;83;25783;-83
2021/01/20 07:49:34;;;;;;;44.98;29.87;;;;;;;0.44;89.56;99640.92;1622122;86;25719;-83
2021/01/20 07:52:06;;;;;;;49.58;31.23;;;;;;;0.44;89.49;99645.25;1677731;83;25716;-83
2021/01/20 07:54:44;;;;;;;43.35;28.57;;;;;;;0.48;89.62;99638.11;1675732;83;25929;-84
2021/01/20 07:57:16;;;;;;;45.15;29.32;;;;;;;0.55;89.75;99636.71;1677448;83;26029;-83
2021/01/20 07:59:43;;;;;;;46.85;30.25;;;;;;;0.54;89.61;99642.30;1676373;83;25873;-83
2021/01/20 08:02:18;;;;;;;46.15;27.75;;;;;;;0.56;89.65;99651.19;1676989;83;25830;-83
2021/01/20 08:04:44;;;;;;;46.70;28.87;;;;;;;0.57;89.64;99642.53;1675588;83;26411;-83
2021/01/20 08:07:14;;;;;;;48.25;30.75;;;;;;;0.60;89.73;99644.86;1675663;83;25855;-82
2021/01/20 08:09:56;;;;;;;49.75;30.70;;;;;;;0.66;89.87;99645.70;1673465;83;25931;-84
2021/01/20 08:12:32;;;;;;;51.55;29.70;;;;;;;0.70;89.83;99652.22;1675590;83;25878;-84
2021/01/20 08:15:03;;;;;;;73.72;49.80;;;;;;;0.74;89.82;99656.67;1676324;83;27355;-82
2021/01/20 08:17:29;;;;;;;61.88;39.95;;;;;;;0.74;89.74;99654.10;1679795;83;25782;-83
2021/01/20 08:19:57;;;;;;;52.67;35.05;;;;;;;0.77;89.78;99653.86;1676478;83;25815;-83
2021/01/20 08:22:24;;;;;;;57.45;39.85;;;;;;;0.77;89.72;99653.39;1678757;83;25581;-83
2021/01/20 08:24:52;;;;;;;57.05;37.98;;;;;;;0.82;89.91;99656.42;1678074;83;25492;-83
2021/01/20 08:27:29;;;;;;;50.65;31.68;;;;;;;0.87;89.92;99665.88;1680891;83;26475;-84
2021/01/20 08:29:58;;;;;;;49.55;31.60;;;;;;;0.91;89.87;99665.17;1676482;83;25668;-84
2021/01/20 08:32:25;;;;;;;46.92;29.72;;;;;;;0.98;89.99;99668.91;1679292;83;25867;-84
2021/01/20 08:34:53;;;;;;;50.00;31.48;;;;;;;1.00;89.90;99664.91;1677495;83;25895;-84
2021/01/20 08:37:43;;;;;;;47.03;30.00;;;;;;;1.03;89.88;99667.23;1679092;83;25862;-84
2021/01/20 08:40:11;;;;;;;51.83;28.98;;;;;;;1.08;89.96;99668.50;1676532;83;25654;-84
2021/01/20 08:42:40;;;;;;;45.70;27.62;;;;;;;1.14;89.96;99673.63;1676618;83;26633;-84
2021/01/20 08:45:16;;;;;;;45.63;27.15;;;;;;;1.17;89.80;99675.95;1676844;83;25698;-84
2021/01/20 08:48:02;;;;;;;55.30;30.62;;;;;;;1.20;89.84;99671.88;1675643;83;26455;-84
2021/01/20 08:50:45;;;;;;;42.53;29.00;;;;;;;1.19;89.74;99677.14;1674781;83;25911;-84
2021/01/20 08:53:27;;;;;;;41.85;28.98;;;;;;;1.21;89.85;99680.41;1677692;83;25735;-84
2021/01/20 08:55:56;;;;;;;46.00;28.67;;;;;;;1.22;89.94;99678.98;1673529;83;25995;-85
2021/01/20 08:58:32;;;;;;;45.50;29.48;;;;;;;1.24;89.96;99675.02;1674792;83;26413;-84
2021/01/20 09:01:18;;;;;;;45.52;28.20;;;;;;;1.24;89.90;99685.31;1672834;83;25813;-84
2021/01/20 09:03:59;;;;;;;47.13;27.67;;;;;;;1.25;90.02;99680.03;1674697;83;25774;-84
2021/01/20 09:06:27;;;;;;;41.90;29.40;;;;;;;1.30;90.05;99680.48;1674081;83;25794;-84
2021/01/20 09:08:57;;;;;;;42.27;26.42;;;;;;;1.32;90.07;99690.20;1672889;83;25728;-85
2021/01/20 09:11:24;;;;;;;48.98;30.20;;;;;;;1.31;89.93;99694.20;1672826;83;26653;-84
2021/01/20 09:13:56;;;;;;;45.63;29.30;;;;;;;1.33;90.04;99691.82;1672677;83;25801;-85
2021/01/20 09:16:28;;;;;;;44.65;27.07;;;;;;;1.34;90.05;99700.38;1675612;83;25373;-85
2021/01/20 09:18:54;;;;;;;51.88;29.67;;;;;;;1.38;90.02;99704.81;1672828;83;26359;-85
2021/01/20 09:21:21;;;;;;;46.18;27.13;;;;;;;1.37;89.91;99699.32;1671866;83;25901;-84
2021/01/20 09:23:51;;;;;;;41.25;26.97;;;;;;;1.40;90.06;99697.31;1659765;84;25859;-85
2021/01/20 09:26:19;;;;;;;43.87;27.73;;;;;;;1.41;89.95;99698.94;1672675;83;25918;-85
2021/01/20 09:28:45;;;;;;;44.13;28.35;;;;;;;1.46;90.12;99695.52;1673150;83;25876;-84
2021/01/20 09:31:12;;;;;;;44.45;28.42;;;;;;;1.51;90.18;99682.30;1674659;83;25790;-85
2021/01/20 09:33:38;;;;;;;40.67;25.82;;;;;;;1.55;90.12;99686.23;1673942;83;26544;-84
2021/01/20 09:36:05;;;;;;;37.55;25.32;;;;;;;1.58;90.12;99685.17;1674497;83;25973;-85
2021/01/20 09:38:32;;;;;;;40.35;25.17;;;;;;;1.63;90.16;99686.91;1676208;83;26187;-84
2021/01/20 09:41:02;;;;;;;36.77;25.35;;;;;;;1.67;90.23;99684.45;1673722;83;25840;-85
2021/01/20 09:43:28;;;;;;;44.55;25.80;;;;;;;1.71;90.34;99681.48;1672731;83;25869;-83
2021/01/20 09:45:55;;;;;;;40.08;26.55;;;;;;;1.77;90.34;99674.56;1670346;83;25885;-84
2021/01/20 09:48:22;;;;;;;37.98;24.50;;;;;;;1.71;90.33;99660.87;1674372;83;25795;-84
2021/01/20 09:50:48;;;;;;;45.70;24.10;;;;;;;1.85;90.44;99653.30;1677468;83;26081;-83
2021/01/20 09:53:15;;;;;;;37.42;23.77;;;;;;;1.82;90.45;99647.59;1675984;83;26531;-84
2021/01/20 09:55:41;;;;;;;39.45;24.37;;;;;;;1.91;90.45;99663.56;1678601;83;25839;-85
2021/01/20 09:58:08;;;;;;;38.08;25.88;;;;;;;1.97;90.76;99663.08;1676408;83;26365;-85
2021/01/20 10:00:36;;;;;;;35.13;22.58;;;;;;;1.97;90.76;99663.08;1679254;83;25783;-84
2021/01/20 10:03:06;;;;;;;33.90;23.60;;;;;;;2.00;90.55;99667.98;1674446;83;25917;-86
2021/01/20 10:05:32;;;;;;;36.50;24.57;;;;;;;2.04;90.55;99658.22;1675729;83;25476;-85
2021/01/20 10:07:59;;;;;;;36.38;23.60;;;;;;;2.06;90.58;99658.44;1674095;83;26607;-85
2021/01/20 10:10:25;;;;;;;49.10;30.20;;;;;;;2.11;90.70;99660.17;1676000;83;25789;-85
2021/01/20 10:12:54;;;;;;;41.92;28.02;;;;;;;2.14;90.68;99657.80;1659467;83;25887;-85
2021/01/20 10:15:24;;;;;;;37.70;25.82;;;;;;;2.16;90.69;99658.50;1674556;83;25315;-85
2021/01/20 10:17:52;;;;;;;76.87;48.28;;;;;;;2.03;90.75;99626.97;1676463;83;25808;-85
2021/01/20 10:20:18;;;;;;;82.92;59.48;;;;;;;2.23;90.76;99651.87;1677776;83;25711;-85
2021/01/20 10:22:45;;;;;;;62.08;47.17;;;;;;;2.29;90.95;99649.25;1678323;83;25734;-85
2021/01/20 10:27:46;;;;;;;35.50;24.80;;;;;;;2.40;90.98;99645.28;1678827;83;25791;-84
2021/01/20 10:30:13;;;;;;;33.40;22.80;;;;;;;2.43;90.87;99645.86;1677230;83;26476;-85
2021/01/20 10:32:40;;;;;;;35.10;26.65;;;;;;;2.46;90.86;99643.49;1675166;83;25981;-85
2021/01/20 10:35:11;;;;;;;35.33;25.55;;;;;;;2.50;90.94;99648.72;1678414;83;25913;-85
2021/01/20 10:37:36;;;;;;;35.10;26.37;;;;;;;2.53;90.84;99648.93;1677827;83;26041;-85
2021/01/20 10:40:04;;;;;;;35.60;27.20;;;;;;;2.55;90.85;99649.63;1678436;83;25165;-85
2021/01/20 10:42:30;;;;;;;42.75;31.33;;;;;;;2.58;90.90;99646.30;1681264;83;25219;-85
2021/01/20 10:44:57;;;;;;;36.33;27.87;;;;;;;2.65;90.87;99653.05;1677914;83;26636;-84
2021/01/20 10:47:23;;;;;;;30.25;22.10;;;;;;;2.66;90.77;99641.78;1676798;83;25739;-85
2021/01/20 10:49:49;;;;;;;35.05;24.75;;;;;;;2.68;90.84;99630.86;1677252;83;25819;-84
2021/01/20 10:52:16;;;;;;;30.32;23.00;;;;;;;2.78;90.85;99638.16;1676727;83;25876;-84
2021/01/20 10:54:42;;;;;;;31.00;22.02;;;;;;;2.84;90.86;99636.33;1676411;83;26349;-84
2021/01/20 10:57:09;;;;;;;36.90;25.55;;;;;;;2.86;90.77;99635.72;1677593;83;26447;-85
2021/01/20 10:59:41;;;;;;;37.85;24.75;;;;;;;2.92;90.67;99633.53;1673351;83;25904;-84
2021/01/20 11:02:04;;;;;;;35.63;23.83;;;;;;;2.94;90.64;99628.58;1675885;83;26660;-84
2021/01/20 11:04:30;;;;;;;38.13;24.27;;;;;;;2.94;90.46;99632.45;1677406;83;26412;-85
2021/01/20 11:06:57;;;;;;;39.08;25.35;;;;;;;2.91;90.44;99626.75;1678472;83;25795;-85
2021/01/20 11:09:23;;;;;;;40.10;25.25;;;;;;;2.87;90.36;99628.31;1678607;83;26547;-85
2021/01/20 11:11:50;;;;;;;37.88;26.20;;;;;;;2.88;90.58;99632.52;1673495;83;26358;-85
2021/01/20 11:14:16;;;;;;;37.73;25.70;;;;;;;2.91;90.68;99628.05;1675766;83;26559;-85
2021/01/20 11:16:43;;;;;;;35.40;24.07;;;;;;;2.91;90.70;99628.85;1677462;83;26038;-85
2021/01/20 11:19:09;;;;;;;37.00;23.65;;;;;;;2.92;90.71;99635.66;1673686;83;25878;-84
2021/01/20 11:21:36;;;;;;;37.30;24.27;;;;;;;2.93;90.61;99628.73;1675360;83;26349;-84
2021/01/20 11:24:02;;;;;;;35.52;24.82;;;;;;;2.90;90.54;99622.07;1678507;83;26769;-85
2021/01/20 11:26:28;;;;;;;34.83;23.57;;;;;;;2.86;90.73;99607.79;1673300;83;26328;-84
2021/01/20 11:28:55;;;;;;;37.28;25.12;;;;;;;2.97;90.75;99614.59;1675460;83;25687;-84
2021/01/20 11:31:22;;;;;;;39.27;24.45;;;;;;;3.04;90.88;99616.98;1674964;83;26586;-84
2021/01/20 11:33:49;;;;;;;35.00;24.05;;;;;;;3.09;90.84;99607.08;1675278;83;26003;-84
2021/01/20 11:36:15;;;;;;;39.30;24.40;;;;;;;3.13;90.82;99604.55;1672811;83;25404;-84
2021/01/20 11:38:41;;;;;;;32.50;22.80;;;;;;;3.16;90.66;99600.40;1672980;83;26452;-84
2021/01/20 11:41:08;;;;;;;30.75;22.13;;;;;;;3.21;90.86;99594.35;1676511;83;26000;-84
2021/01/20 11:43:44;;;;;;;37.38;25.15;;;;;;;3.30;91.02;99592.26;1674427;83;26623;-83
2021/01/20 11:46:10;;;;;;;37.30;25.27;;;;;;;3.38;90.63;99582.99;1675471;83;25750;-83
2021/01/20 11:48:38;;;;;;;47.67;28.12;;;;;;;3.39;90.71;99583.34;1675727;83;44102;-83